Terminal Aerodrome Forecast
Issued by NWS Twin Cities, MN

Home | Current Version | Previous Version | Text Only | Print | Product List | Glossary On
Versions: 1 2 3 4 5 6 7 8 9 10 11 12 13 14 15 16 17 18 19 20
000
FTUS43 KMPX 221120
TAFSTC
TAF
KSTC 221120Z 2212/2312 19003KT 6SM -SHRA VCTS SCT020CB BKN080
     FM221400 29009KT P6SM SCT035
     FM221700 30011G20KT P6SM SCT050
     FM230000 32009KT P6SM SKC=

USA.gov is the U.S. government's official web portal to all federal, state and local government web resources and services.